Time;durP1;ratioP1;P1;durP2;ratioP2;P2;SDS_P1;SDS_P2;PMS_P1;PMS_P2;Temp;Humidity;BMP_temperature;BMP_pressure;BME280_temperature;BME280_humidity;BME280_pressure;Samples;Min_cycle;Max_cycle;Signal;HPM_P1;HPM_P2
2023/06/05 00:01:38;;;;;;;13.23;4.05;;;;;;;;;;5006444;28;20511;-71
2023/06/05 00:04:05;;;;;;;11.63;4.43;;;;;;;;;;5011782;28;20022;-72
2023/06/05 00:06:31;;;;;;;12.98;4.43;;;;;;;;;;5012559;28;20041;-71
2023/06/05 00:08:58;;;;;;;14.82;5.03;;;;;;;;;;5012396;28;20022;-72
2023/06/05 00:11:25;;;;;;;11.90;4.75;;;;;;;;;;5012696;28;20100;-72
2023/06/05 00:13:51;;;;;;;11.38;3.97;;;;;;;;;;5018022;28;20459;-71
2023/06/05 00:16:17;;;;;;;10.77;4.22;;;;;;;;;;5016433;28;20030;-71
2023/06/05 00:18:46;;;;;;;8.88;3.85;;;;;;;;;;5015447;28;20163;-72
2023/06/05 00:21:13;;;;;;;11.13;4.50;;;;;;;;;;5032567;28;20091;-72
2023/06/05 00:23:39;;;;;;;12.52;4.82;;;;;;;;;;5016478;28;20030;-73
2023/06/05 00:26:05;;;;;;;11.95;5.15;;;;;;;;;;5016094;28;20030;-71
2023/06/05 00:28:32;;;;;;;9.30;4.35;;;;;;;;;;5013279;28;20026;-74
2023/06/05 00:30:57;;;;;;;14.32;4.57;;;;;;;;;;5018385;28;20109;-71
2023/06/05 00:33:24;;;;;;;12.85;4.45;;;;;;;;;;5034577;28;20069;-71
2023/06/05 00:35:50;;;;;;;10.18;4.88;;;;;;;;;;5034918;28;20076;-72
2023/06/05 00:38:16;;;;;;;13.60;4.93;;;;;;;;;;5032574;28;20065;-72
2023/06/05 00:40:42;;;;;;;12.52;5.28;;;;;;;;;;5012062;28;20419;-72
2023/06/05 00:43:08;;;;;;;13.52;5.28;;;;;;;;;;5012031;28;20034;-71
2023/06/05 00:45:34;;;;;;;14.07;5.57;;;;;;;;;;5011995;28;20076;-72
2023/06/05 00:48:00;;;;;;;13.73;5.13;;;;;;;;;;5011794;28;20479;-73
2023/06/05 00:50:26;;;;;;;12.23;5.30;;;;;;;;;;5012039;28;20123;-72
2023/06/05 00:52:52;;;;;;;12.73;5.15;;;;;;;;;;5011655;28;20033;-72
2023/06/05 00:55:18;;;;;;;16.55;5.45;;;;;;;;;;5012135;28;20391;-71
2023/06/05 00:57:44;;;;;;;17.13;5.40;;;;;;;;;;5011972;28;20399;-72
2023/06/05 01:00:14;;;;;;;20.73;5.75;;;;;;;;;;5011618;28;20036;-72
2023/06/05 01:02:40;;;;;;;16.23;5.22;;;;;;;;;;5011898;28;20460;-72
2023/06/05 01:05:07;;;;;;;22.85;5.72;;;;;;;;;;5011771;28;20033;-72
2023/06/05 01:07:34;;;;;;;11.23;5.22;;;;;;;;;;5012264;28;20468;-72
2023/06/05 01:10:03;;;;;;;14.25;5.15;;;;;;;;;;5012698;28;20052;-73
2023/06/05 01:13:01;;;;;;;12.15;4.93;;;;;;;;;;5014425;28;20046;-74
2023/06/05 01:15:29;;;;;;;15.75;5.82;;;;;;;;;;4998792;28;20045;-72
2023/06/05 01:17:59;;;;;;;14.27;5.15;;;;;;;;;;5017472;28;20057;-71
2023/06/05 01:20:51;;;;;;;13.93;5.55;;;;;;;;;;5012519;28;20022;-73
2023/06/05 01:23:17;;;;;;;12.73;5.57;;;;;;;;;;5024138;28;20037;-71
2023/06/05 01:25:44;;;;;;;17.40;5.57;;;;;;;;;;5011662;28;20033;-74
2023/06/05 01:28:12;;;;;;;15.57;6.28;;;;;;;;;;5011435;28;20025;-72
2023/06/05 01:30:46;;;;;;;11.52;5.05;;;;;;;;;;5009172;28;20085;-72
2023/06/05 01:33:17;;;;;;;19.13;5.80;;;;;;;;;;5010796;28;20385;-71
2023/06/05 01:35:44;;;;;;;13.00;5.78;;;;;;;;;;5028658;28;20022;-72
2023/06/05 01:38:11;;;;;;;20.95;5.97;;;;;;;;;;5031019;28;20033;-71
2023/06/05 01:40:37;;;;;;;17.30;6.43;;;;;;;;;;5030972;28;20428;-71
2023/06/05 01:43:05;;;;;;;12.75;5.85;;;;;;;;;;5030193;28;20053;-71
2023/06/05 01:45:32;;;;;;;13.98;6.35;;;;;;;;;;5030922;28;20071;-71
2023/06/05 01:47:58;;;;;;;15.00;5.97;;;;;;;;;;5030937;28;20125;-71
2023/06/05 01:50:24;;;;;;;11.77;6.32;;;;;;;;;;5030645;28;20109;-72
2023/06/05 01:52:52;;;;;;;14.10;5.60;;;;;;;;;;5030387;28;20017;-72
2023/06/05 01:55:23;;;;;;;16.45;5.90;;;;;;;;;;5030626;28;20055;-72
2023/06/05 01:57:50;;;;;;;16.63;5.38;;;;;;;;;;5019449;28;20053;-71
2023/06/05 02:00:17;;;;;;;19.00;5.72;;;;;;;;;;5011663;28;20130;-72
2023/06/05 02:02:45;;;;;;;15.52;6.03;;;;;;;;;;5014291;28;20022;-72
2023/06/05 02:05:11;;;;;;;16.67;5.78;;;;;;;;;;5015720;28;20033;-73
2023/06/05 02:07:41;;;;;;;11.60;5.03;;;;;;;;;;5018051;28;20033;-72
2023/06/05 02:10:08;;;;;;;12.45;5.78;;;;;;;;;;5019115;28;20109;-71
2023/06/05 02:12:34;;;;;;;15.50;5.40;;;;;;;;;;5020727;28;20030;-71
2023/06/05 02:15:00;;;;;;;12.15;6.00;;;;;;;;;;5014374;28;20076;-72
2023/06/05 02:17:27;;;;;;;13.80;6.25;;;;;;;;;;5014341;28;20026;-71
2023/06/05 02:19:53;;;;;;;16.75;6.28;;;;;;;;;;5015035;28;20037;-72
2023/06/05 02:22:19;;;;;;;12.00;5.95;;;;;;;;;;5014628;28;20034;-72
2023/06/05 02:24:45;;;;;;;11.98;5.93;;;;;;;;;;5015298;28;20515;-71
2023/06/05 02:27:12;;;;;;;10.18;5.70;;;;;;;;;;5013706;28;20035;-71
2023/06/05 02:29:38;;;;;;;15.57;6.22;;;;;;;;;;5014593;28;20104;-71
2023/06/05 02:32:05;;;;;;;15.48;7.13;;;;;;;;;;5013250;28;20108;-71
2023/06/05 02:34:32;;;;;;;20.92;6.53;;;;;;;;;;5013300;28;20022;-72
2023/06/05 02:36:59;;;;;;;14.02;6.43;;;;;;;;;;5014711;28;20502;-71
2023/06/05 02:39:25;;;;;;;12.35;6.18;;;;;;;;;;5015307;28;20026;-72
2023/06/05 02:41:51;;;;;;;16.05;6.82;;;;;;;;;;5014972;28;20032;-72
2023/06/05 02:44:18;;;;;;;13.00;6.60;;;;;;;;;;5013802;28;20026;-72
2023/06/05 02:46:44;;;;;;;14.82;6.95;;;;;;;;;;5015322;28;20049;-72
2023/06/05 02:49:10;;;;;;;22.20;7.85;;;;;;;;;;5014812;28;20033;-72
2023/06/05 02:51:36;;;;;;;16.98;8.05;;;;;;;;;;5015130;28;20016;-72
2023/06/05 02:54:02;;;;;;;18.02;7.65;;;;;;;;;;5013956;28;20076;-72
2023/06/05 02:56:29;;;;;;;15.40;7.80;;;;;;;;;;5015433;28;20026;-72
2023/06/05 02:58:56;;;;;;;14.77;7.00;;;;;;;;;;5013170;28;20461;-71
2023/06/05 03:01:22;;;;;;;18.73;7.10;;;;;;;;;;5013842;28;20025;-71
2023/06/05 03:03:48;;;;;;;15.88;7.50;;;;;;;;;;5013245;28;20033;-72
2023/06/05 03:06:17;;;;;;;18.10;7.28;;;;;;;;;;5014368;28;20439;-72
2023/06/05 03:08:43;;;;;;;13.68;7.07;;;;;;;;;;5013817;28;20029;-72
2023/06/05 03:11:09;;;;;;;18.23;7.50;;;;;;;;;;5013615;28;20051;-72
2023/06/05 03:13:35;;;;;;;20.48;8.20;;;;;;;;;;5013400;28;20105;-72
2023/06/05 03:16:01;;;;;;;17.10;7.70;;;;;;;;;;5013701;28;20076;-72
2023/06/05 03:18:28;;;;;;;16.38;7.30;;;;;;;;;;5013487;28;20080;-73
2023/06/05 03:20:57;;;;;;;19.52;8.13;;;;;;;;;;5013263;28;20537;-71
2023/06/05 03:23:23;;;;;;;14.35;6.90;;;;;;;;;;5013209;28;20030;-71
2023/06/05 03:25:50;;;;;;;13.38;6.90;;;;;;;;;;5014374;28;20022;-73
2023/06/05 03:28:17;;;;;;;14.82;7.25;;;;;;;;;;5013715;28;20451;-72
2023/06/05 03:30:43;;;;;;;19.77;9.93;;;;;;;;;;4997812;28;20033;-73
2023/06/05 03:33:09;;;;;;;19.98;8.40;;;;;;;;;;5014011;28;20076;-72
2023/06/05 03:35:35;;;;;;;10.20;7.13;;;;;;;;;;5014288;28;20025;-73
2023/06/05 03:38:01;;;;;;;17.00;7.53;;;;;;;;;;5014947;28;20556;-72
2023/06/05 03:40:27;;;;;;;15.43;7.60;;;;;;;;;;5015314;28;20028;-73
2023/06/05 03:42:53;;;;;;;17.65;9.63;;;;;;;;;;5014994;28;20023;-73
2023/06/05 03:45:19;;;;;;;17.33;8.43;;;;;;;;;;5015867;28;20022;-73
2023/06/05 03:47:48;;;;;;;16.35;8.25;;;;;;;;;;5014242;28;20022;-72
2023/06/05 03:50:16;;;;;;;14.70;7.93;;;;;;;;;;5012928;28;20488;-72
2023/06/05 03:52:42;;;;;;;17.02;8.70;;;;;;;;;;5012900;28;20475;-71
2023/06/05 03:55:09;;;;;;;18.40;10.07;;;;;;;;;;5016965;28;20072;-73
2023/06/05 03:57:37;;;;;;;22.05;10.40;;;;;;;;;;5011897;28;20025;-71
2023/06/05 04:00:03;;;;;;;17.65;9.73;;;;;;;;;;5013552;28;20364;-71
2023/06/05 04:02:29;;;;;;;15.70;8.85;;;;;;;;;;5013936;28;20041;-72
2023/06/05 04:04:55;;;;;;;15.25;8.63;;;;;;;;;;5017080;28;20033;-72
2023/06/05 04:07:21;;;;;;;18.00;8.45;;;;;;;;;;5022441;28;20030;-72
2023/06/05 04:09:47;;;;;;;13.48;8.43;;;;;;;;;;5023579;28;20037;-73
2023/06/05 04:12:14;;;;;;;21.77;9.95;;;;;;;;;;5022637;28;20034;-72
2023/06/05 04:14:40;;;;;;;14.57;8.40;;;;;;;;;;5015480;28;20092;-72
2023/06/05 04:17:06;;;;;;;14.32;8.50;;;;;;;;;;5012869;28;20439;-72
2023/06/05 04:19:32;;;;;;;13.07;8.27;;;;;;;;;;5013280;28;20026;-71
2023/06/05 04:21:59;;;;;;;15.57;8.77;;;;;;;;;;5000529;28;20030;-72
2023/06/05 04:24:26;;;;;;;20.55;9.43;;;;;;;;;;5017921;28;20113;-73
2023/06/05 04:26:51;;;;;;;18.38;9.68;;;;;;;;;;5022307;28;20097;-73
2023/06/05 04:29:18;;;;;;;18.35;10.40;;;;;;;;;;5024136;28;20030;-73
2023/06/05 04:31:44;;;;;;;18.67;9.35;;;;;;;;;;5019122;28;20032;-72
2023/06/05 04:34:11;;;;;;;16.40;9.73;;;;;;;;;;5011965;28;20018;-75
2023/06/05 04:36:37;;;;;;;18.13;9.20;;;;;;;;;;5009467;28;20026;-76
2023/06/05 04:39:14;;;;;;;17.02;9.05;;;;;;;;;;5016333;28;20052;-73
2023/06/05 04:41:44;;;;;;;17.90;9.35;;;;;;;;;;5012283;28;20038;-75
2023/06/05 04:44:16;;;;;;;17.80;10.07;;;;;;;;;;5010048;28;20037;-75
2023/06/05 04:46:43;;;;;;;19.70;9.82;;;;;;;;;;5016949;28;20113;-75
2023/06/05 04:49:10;;;;;;;17.83;10.32;;;;;;;;;;5010200;28;20110;-77
2023/06/05 04:51:36;;;;;;;16.92;10.60;;;;;;;;;;5015100;28;20065;-76
2023/06/05 04:54:03;;;;;;;18.90;10.50;;;;;;;;;;5024237;28;20379;-75
2023/06/05 04:56:29;;;;;;;16.25;9.65;;;;;;;;;;5017592;28;20022;-71
2023/06/05 04:58:55;;;;;;;16.83;9.88;;;;;;;;;;5013395;28;20105;-71
2023/06/05 05:01:21;;;;;;;19.42;10.52;;;;;;;;;;5013685;28;20022;-72
2023/06/05 05:03:48;;;;;;;21.13;10.90;;;;;;;;;;5013452;28;20491;-71
2023/06/05 05:06:17;;;;;;;15.65;9.68;;;;;;;;;;5013093;28;20029;-73
2023/06/05 05:08:45;;;;;;;19.45;11.70;;;;;;;;;;5016379;28;20106;-75
2023/06/05 05:11:11;;;;;;;19.90;11.07;;;;;;;;;;5015442;28;20500;-73
2023/06/05 05:13:38;;;;;;;19.65;11.45;;;;;;;;;;5015994;28;20030;-72
2023/06/05 05:16:04;;;;;;;20.38;12.05;;;;;;;;;;5020264;28;20026;-72
2023/06/05 05:18:30;;;;;;;20.08;12.82;;;;;;;;;;5019059;28;20046;-74
2023/06/05 05:20:56;;;;;;;23.83;13.20;;;;;;;;;;5012701;28;20037;-76
2023/06/05 05:23:22;;;;;;;48.08;22.55;;;;;;;;;;5010885;28;20484;-73
2023/06/05 05:25:48;;;;;;;31.35;14.65;;;;;;;;;;5016750;28;20041;-76
2023/06/05 05:28:14;;;;;;;27.80;14.85;;;;;;;;;;5016158;28;20060;-73
2023/06/05 05:30:40;;;;;;;25.35;13.30;;;;;;;;;;5013680;28;20483;-73
2023/06/05 05:33:06;;;;;;;25.25;13.80;;;;;;;;;;5013229;28;20029;-74
2023/06/05 05:35:32;;;;;;;38.83;14.80;;;;;;;;;;5020028;28;20100;-80
2023/06/05 05:37:58;;;;;;;23.42;12.57;;;;;;;;;;5013662;28;20475;-73
2023/06/05 05:40:24;;;;;;;21.70;11.85;;;;;;;;;;5015355;28;20037;-73
2023/06/05 05:42:50;;;;;;;22.25;12.52;;;;;;;;;;5011465;28;20026;-74
2023/06/05 05:45:16;;;;;;;24.33;13.65;;;;;;;;;;5021528;28;20412;-76
2023/06/05 05:47:42;;;;;;;26.27;12.93;;;;;;;;;;5018558;28;20022;-75
2023/06/05 05:50:08;;;;;;;29.08;13.98;;;;;;;;;;5014681;28;20044;-74
2023/06/05 05:52:35;;;;;;;22.83;12.73;;;;;;;;;;5022876;28;20359;-75
2023/06/05 05:55:03;;;;;;;24.73;13.05;;;;;;;;;;5012744;28;20498;-74
2023/06/05 05:57:29;;;;;;;24.45;12.73;;;;;;;;;;5023333;28;20144;-73
2023/06/05 05:59:55;;;;;;;26.70;13.30;;;;;;;;;;5014131;28;20033;-72
2023/06/05 06:02:21;;;;;;;27.63;13.27;;;;;;;;;;5020943;28;20495;-72
2023/06/05 06:04:48;;;;;;;28.95;14.73;;;;;;;;;;5020050;28;20045;-72
2023/06/05 06:07:14;;;;;;;22.88;12.07;;;;;;;;;;5018006;28;20113;-72
2023/06/05 06:09:40;;;;;;;21.52;11.32;;;;;;;;;;5024399;28;20061;-72
2023/06/05 06:12:07;;;;;;;22.35;12.35;;;;;;;;;;5020828;28;20028;-71
2023/06/05 06:14:36;;;;;;;24.92;12.80;;;;;;;;;;5019595;28;20022;-70
2023/06/05 06:17:05;;;;;;;25.08;12.63;;;;;;;;;;5012998;28;20026;-71
2023/06/05 06:19:32;;;;;;;29.20;12.27;;;;;;;;;;5017301;28;20083;-73
2023/06/05 06:21:58;;;;;;;26.83;12.82;;;;;;;;;;5013636;28;20040;-71
2023/06/05 06:24:24;;;;;;;22.15;12.65;;;;;;;;;;5014764;28;20022;-72
2023/06/05 06:26:52;;;;;;;22.63;12.18;;;;;;;;;;5014739;28;20053;-72
2023/06/05 06:29:23;;;;;;;24.05;11.18;;;;;;;;;;5014251;28;20034;-72
2023/06/05 06:31:49;;;;;;;23.05;11.75;;;;;;;;;;5011387;28;20041;-71
2023/06/05 06:34:16;;;;;;;25.02;12.95;;;;;;;;;;5014731;28;20037;-70
2023/06/05 06:36:44;;;;;;;25.55;12.05;;;;;;;;;;5017884;28;20056;-70
2023/06/05 06:39:10;;;;;;;24.02;11.77;;;;;;;;;;5034296;28;20091;-71
2023/06/05 06:41:37;;;;;;;23.10;11.75;;;;;;;;;;5033712;28;20056;-71
2023/06/05 06:44:03;;;;;;;24.35;10.88;;;;;;;;;;5033078;28;20032;-70
2023/06/05 06:46:30;;;;;;;26.27;11.80;;;;;;;;;;5032739;28;20017;-72
2023/06/05 06:48:56;;;;;;;24.48;11.13;;;;;;;;;;5033458;28;20053;-70
2023/06/05 06:51:22;;;;;;;27.05;11.32;;;;;;;;;;5033621;28;20510;-70
2023/06/05 06:53:48;;;;;;;25.17;10.80;;;;;;;;;;5033041;28;20055;-72
2023/06/05 06:56:15;;;;;;;32.45;10.88;;;;;;;;;;5033642;28;20021;-71
2023/06/05 06:58:42;;;;;;;20.90;9.07;;;;;;;;;;5033929;28;20030;-71
2023/06/05 07:01:08;;;;;;;24.98;10.40;;;;;;;;;;5036712;28;20117;-72
2023/06/05 07:03:35;;;;;;;23.95;9.38;;;;;;;;;;5019936;28;20040;-72
2023/06/05 07:06:01;;;;;;;18.75;8.50;;;;;;;;;;5038801;28;20507;-72
2023/06/05 07:08:27;;;;;;;18.50;9.23;;;;;;;;;;5036396;28;20036;-72
2023/06/05 07:10:56;;;;;;;22.20;9.18;;;;;;;;;;5037015;28;20026;-75
2023/06/05 07:13:22;;;;;;;20.90;9.27;;;;;;;;;;5035366;28;20736;-71
2023/06/05 07:15:49;;;;;;;20.75;9.13;;;;;;;;;;5034507;28;20056;-72
2023/06/05 07:18:15;;;;;;;17.73;9.40;;;;;;;;;;5033734;28;20483;-71
2023/06/05 07:20:41;;;;;;;21.25;10.43;;;;;;;;;;5033518;28;20390;-71
2023/06/05 07:23:07;;;;;;;15.52;7.82;;;;;;;;;;5033309;28;20030;-71
2023/06/05 07:25:33;;;;;;;16.80;7.65;;;;;;;;;;5033404;28;20025;-72
2023/06/05 07:28:00;;;;;;;28.73;14.70;;;;;;;;;;5033184;28;20026;-71
2023/06/05 07:30:28;;;;;;;21.60;9.57;;;;;;;;;;5033045;28;20044;-71
2023/06/05 07:32:54;;;;;;;14.27;7.47;;;;;;;;;;5032875;28;20480;-72
2023/06/05 07:35:21;;;;;;;18.92;7.40;;;;;;;;;;5032954;28;20048;-73
2023/06/05 07:37:47;;;;;;;18.15;7.18;;;;;;;;;;5033298;28;20151;-71
2023/06/05 07:40:13;;;;;;;17.67;7.15;;;;;;;;;;5031659;28;20113;-72
2023/06/05 07:42:39;;;;;;;19.38;7.97;;;;;;;;;;5032762;28;20029;-71
2023/06/05 07:45:05;;;;;;;18.58;6.70;;;;;;;;;;5035559;28;20037;-71
2023/06/05 07:47:31;;;;;;;15.95;6.18;;;;;;;;;;5037415;28;20025;-73
2023/06/05 07:50:03;;;;;;;19.50;6.40;;;;;;;;;;5036732;28;20614;-73
2023/06/05 07:52:29;;;;;;;18.05;7.05;;;;;;;;;;5033679;28;20021;-70
2023/06/05 07:54:55;;;;;;;13.68;5.40;;;;;;;;;;5036608;28;20032;-71
2023/06/05 07:57:21;;;;;;;12.23;5.30;;;;;;;;;;5037240;28;20029;-72
2023/06/05 07:59:49;;;;;;;11.82;5.38;;;;;;;;;;5034274;28;20025;-72
2023/06/05 08:02:15;;;;;;;18.63;5.65;;;;;;;;;;5035861;28;20093;-73
2023/06/05 08:04:41;;;;;;;15.73;5.68;;;;;;;;;;5037136;28;20021;-71
2023/06/05 08:07:07;;;;;;;17.52;4.80;;;;;;;;;;5037872;28;20036;-72
2023/06/05 08:09:36;;;;;;;13.63;4.80;;;;;;;;;;5037119;28;20037;-73
2023/06/05 08:12:03;;;;;;;14.52;5.15;;;;;;;;;;5034843;28;20021;-72
2023/06/05 08:14:29;;;;;;;14.68;4.85;;;;;;;;;;5035041;28;20036;-72
2023/06/05 08:16:55;;;;;;;13.40;4.63;;;;;;;;;;5037033;28;20072;-70
2023/06/05 08:19:21;;;;;;;12.20;4.68;;;;;;;;;;5035960;28;20046;-71
2023/06/05 08:21:47;;;;;;;19.98;4.90;;;;;;;;;;5036753;28;20103;-70
2023/06/05 08:24:13;;;;;;;11.00;4.40;;;;;;;;;;5037019;28;20079;-73
2023/06/05 08:26:39;;;;;;;11.82;5.25;;;;;;;;;;5033682;28;20120;-72
2023/06/05 08:29:06;;;;;;;18.35;4.50;;;;;;;;;;5032249;28;20107;-73
2023/06/05 08:31:34;;;;;;;15.13;5.55;;;;;;;;;;5033787;28;20025;-75
2023/06/05 08:34:00;;;;;;;13.27;5.72;;;;;;;;;;5033185;28;20027;-75
2023/06/05 08:36:26;;;;;;;10.40;4.18;;;;;;;;;;5032025;28;20021;-75
2023/06/05 08:38:52;;;;;;;6.88;3.25;;;;;;;;;;5030606;28;20025;-75
2023/06/05 08:41:18;;;;;;;13.05;4.25;;;;;;;;;;5032741;28;20321;-73
2023/06/05 08:43:44;;;;;;;12.20;4.07;;;;;;;;;;5032243;28;20105;-73
2023/06/05 08:46:11;;;;;;;10.52;3.65;;;;;;;;;;5032436;28;20040;-75
2023/06/05 08:48:38;;;;;;;8.18;3.67;;;;;;;;;;5032100;28;20230;-73
2023/06/05 08:51:07;;;;;;;10.07;5.28;;;;;;;;;;5033037;28;20029;-77
2023/06/05 08:53:34;;;;;;;14.48;4.40;;;;;;;;;;5032731;28;20025;-77
2023/06/05 08:56:00;;;;;;;12.57;4.50;;;;;;;;;;5033541;28;20021;-74
2023/06/05 08:58:26;;;;;;;12.27;4.18;;;;;;;;;;5033529;28;20033;-73
2023/06/05 09:00:53;;;;;;;12.52;4.05;;;;;;;;;;5031939;28;20100;-76
2023/06/05 09:03:20;;;;;;;12.82;4.22;;;;;;;;;;5032327;28;20029;-77
2023/06/05 09:05:46;;;;;;;12.23;3.83;;;;;;;;;;5032571;28;20128;-74
2023/06/05 09:08:12;;;;;;;9.20;3.85;;;;;;;;;;5033316;28;20030;-75
2023/06/05 09:10:38;;;;;;;9.95;3.78;;;;;;;;;;5036463;28;20097;-75
2023/06/05 09:13:04;;;;;;;13.55;4.05;;;;;;;;;;5035623;28;20049;-73
2023/06/05 09:15:31;;;;;;;9.93;3.35;;;;;;;;;;5032712;28;20022;-76
2023/06/05 09:18:11;;;;;;;11.50;3.50;;;;;;;;;;5033280;28;20429;-74
2023/06/05 09:20:46;;;;;;;9.32;4.00;;;;;;;;;;5034381;28;20026;-75
2023/06/05 09:23:27;;;;;;;8.45;3.85;;;;;;;;;;5038992;28;20028;-73
2023/06/05 09:25:54;;;;;;;8.50;3.70;;;;;;;;;;5033863;28;20017;-74
2023/06/05 09:28:20;;;;;;;6.15;3.08;;;;;;;;;;5032883;28;20014;-75
2023/06/05 09:30:59;;;;;;;8.80;3.50;;;;;;;;;;5035649;28;20081;-75
2023/06/05 09:33:26;;;;;;;9.07;3.50;;;;;;;;;;5031751;28;20057;-73
2023/06/05 09:36:04;;;;;;;10.32;3.63;;;;;;;;;;5036845;28;20036;-73
2023/06/05 09:38:30;;;;;;;13.25;4.07;;;;;;;;;;5034534;28;20438;-73
2023/06/05 09:41:09;;;;;;;18.05;5.07;;;;;;;;;;5037161;28;20029;-73
2023/06/05 09:43:36;;;;;;;11.50;3.47;;;;;;;;;;5033298;28;20044;-72
2023/06/05 09:46:09;;;;;;;11.35;3.60;;;;;;;;;;5033862;28;20028;-74
2023/06/05 09:48:36;;;;;;;12.32;3.30;;;;;;;;;;5037727;28;20026;-76
2023/06/05 09:51:10;;;;;;;12.70;3.50;;;;;;;;;;5034802;28;20017;-72
2023/06/05 09:53:41;;;;;;;10.10;3.80;;;;;;;;;;5031586;28;20032;-72
2023/06/05 09:56:09;;;;;;;14.90;3.42;;;;;;;;;;5030155;28;20033;-70
2023/06/05 09:58:36;;;;;;;9.77;3.50;;;;;;;;;;5031256;28;20025;-72
2023/06/05 10:01:04;;;;;;;10.25;3.92;;;;;;;;;;5030999;28;20376;-72
2023/06/05 10:03:31;;;;;;;11.68;3.60;;;;;;;;;;5034798;28;20030;-72
2023/06/05 10:05:57;;;;;;;8.32;3.70;;;;;;;;;;5034165;28;20483;-72
2023/06/05 10:08:24;;;;;;;11.02;4.97;;;;;;;;;;5016295;28;20053;-72
2023/06/05 10:10:51;;;;;;;15.50;3.75;;;;;;;;;;5033779;28;20479;-71
2023/06/05 10:13:17;;;;;;;10.48;3.67;;;;;;;;;;5037760;28;20047;-73
2023/06/05 10:15:43;;;;;;;11.77;3.90;;;;;;;;;;5035437;28;20022;-71
2023/06/05 10:18:09;;;;;;;10.70;4.32;;;;;;;;;;5034930;28;20475;-71
2023/06/05 10:20:36;;;;;;;8.85;3.17;;;;;;;;;;5037299;28;20202;-71
2023/06/05 10:23:03;;;;;;;9.13;2.92;;;;;;;;;;5037852;28;20025;-73
2023/06/05 10:25:30;;;;;;;9.77;3.75;;;;;;;;;;5036781;28;20044;-72
2023/06/05 10:28:19;;;;;;;9.02;3.75;;;;;;;;;;5039660;28;20032;-72
2023/06/05 10:30:45;;;;;;;18.85;3.42;;;;;;;;;;5036960;28;20030;-72
2023/06/05 10:33:20;;;;;;;11.27;3.45;;;;;;;;;;5039957;28;20060;-72
2023/06/05 10:35:51;;;;;;;11.15;3.60;;;;;;;;;;5038884;28;20491;-71
2023/06/05 10:38:17;;;;;;;7.50;3.38;;;;;;;;;;5039330;28;20030;-72
2023/06/05 10:40:43;;;;;;;14.15;3.60;;;;;;;;;;5034213;28;20056;-71
2023/06/05 10:43:29;;;;;;;12.65;4.00;;;;;;;;;;5033647;28;20428;-71
2023/06/05 10:45:56;;;;;;;7.90;3.00;;;;;;;;;;5034108;28;20048;-73
2023/06/05 10:48:42;;;;;;;7.78;2.67;;;;;;;;;;5033944;28;20109;-71
2023/06/05 10:51:31;;;;;;;7.78;2.92;;;;;;;;;;5033572;28;20030;-71
2023/06/05 10:53:57;;;;;;;9.80;3.03;;;;;;;;;;5025872;28;20052;-71
2023/06/05 10:56:45;;;;;;;10.27;3.70;;;;;;;;;;5033942;28;20479;-71
2023/06/05 10:59:13;;;;;;;7.53;3.53;;;;;;;;;;5023877;28;20402;-71
2023/06/05 11:01:39;;;;;;;8.00;2.90;;;;;;;;;;5034095;28;20079;-72
2023/06/05 11:04:05;;;;;;;16.27;3.85;;;;;;;;;;5033448;28;20363;-72
2023/06/05 11:06:31;;;;;;;13.25;3.47;;;;;;;;;;5033706;28;20116;-72
2023/06/05 11:09:15;;;;;;;7.10;2.85;;;;;;;;;;5033517;28;20391;-72
2023/06/05 11:11:57;;;;;;;11.18;3.25;;;;;;;;;;5033517;28;20025;-71
2023/06/05 11:14:23;;;;;;;9.13;3.22;;;;;;;;;;5033767;28;20021;-73
2023/06/05 11:16:50;;;;;;;8.07;3.10;;;;;;;;;;5037186;28;20064;-71
2023/06/05 11:19:16;;;;;;;11.52;3.08;;;;;;;;;;5033448;28;20403;-72
2023/06/05 11:22:01;;;;;;;15.00;3.42;;;;;;;;;;5033256;28;20028;-72
2023/06/05 11:24:27;;;;;;;8.25;3.03;;;;;;;;;;5033555;28;20025;-71
2023/06/05 11:26:53;;;;;;;10.35;3.00;;;;;;;;;;5033930;28;20051;-75
2023/06/05 11:29:18;;;;;;;6.70;2.97;;;;;;;;;;5032496;28;20033;-71
2023/06/05 11:31:45;;;;;;;13.57;7.22;;;;;;;;;;5032788;28;20049;-72
2023/06/05 11:34:13;;;;;;;7.70;3.10;;;;;;;;;;5033116;28;20033;-71
2023/06/05 11:36:39;;;;;;;9.50;3.13;;;;;;;;;;5027703;28;20018;-73
2023/06/05 11:39:05;;;;;;;9.30;3.60;;;;;;;;;;5013020;28;20038;-71
2023/06/05 11:41:31;;;;;;;8.07;3.60;;;;;;;;;;5013560;28;20026;-72
2023/06/05 11:43:57;;;;;;;8.45;3.25;;;;;;;;;;5012718;28;20526;-72
2023/06/05 11:46:38;;;;;;;10.55;3.00;;;;;;;;;;5013504;28;20034;-74
2023/06/05 11:49:04;;;;;;;11.43;3.20;;;;;;;;;;5013635;28;20522;-74
2023/06/05 11:51:39;;;;;;;7.57;2.88;;;;;;;;;;5015358;28;20021;-73
2023/06/05 11:54:07;;;;;;;12.43;3.72;;;;;;;;;;5013016;28;20033;-72
2023/06/05 11:56:33;;;;;;;8.32;3.20;;;;;;;;;;5013175;28;20100;-74
2023/06/05 11:58:59;;;;;;;5.50;2.90;;;;;;;;;;5013483;28;20507;-72
2023/06/05 12:01:31;;;;;;;6.22;2.58;;;;;;;;;;5013901;28;20026;-73
2023/06/05 12:04:03;;;;;;;10.48;2.72;;;;;;;;;;5014429;28;20410;-74
2023/06/05 12:06:29;;;;;;;15.70;9.00;;;;;;;;;;5013960;28;20483;-73
2023/06/05 12:09:07;;;;;;;7.78;2.78;;;;;;;;;;5014000;28;20460;-73
2023/06/05 12:11:33;;;;;;;8.35;3.00;;;;;;;;;;5015705;28;20026;-76
2023/06/05 12:14:01;;;;;;;6.25;2.53;;;;;;;;;;5030855;28;20026;-74
2023/06/05 12:16:34;;;;;;;7.88;2.80;;;;;;;;;;5015382;28;20456;-75
2023/06/05 12:19:00;;;;;;;9.20;2.95;;;;;;;;;;5017358;28;20029;-74
2023/06/05 12:21:27;;;;;;;7.75;3.10;;;;;;;;;;5019763;28;20026;-74
2023/06/05 12:24:01;;;;;;;7.18;2.80;;;;;;;;;;5016452;28;20363;-74
2023/06/05 12:26:29;;;;;;;7.05;2.88;;;;;;;;;;5015651;28;20036;-73
2023/06/05 12:29:07;;;;;;;7.85;2.63;;;;;;;;;;5015091;28;20022;-74
2023/06/05 12:31:34;;;;;;;13.50;5.18;;;;;;;;;;5014919;28;20022;-73
2023/06/05 12:34:01;;;;;;;13.10;7.40;;;;;;;;;;5012070;28;20385;-73
2023/06/05 12:36:28;;;;;;;9.13;3.92;;;;;;;;;;5012225;28;20113;-72
2023/06/05 12:38:54;;;;;;;7.85;3.50;;;;;;;;;;5012433;28;20022;-76
2023/06/05 12:41:20;;;;;;;5.18;2.78;;;;;;;;;;5015132;28;20034;-76
2023/06/05 12:43:58;;;;;;;14.80;3.55;;;;;;;;;;5017524;28;20038;-75
2023/06/05 12:46:24;;;;;;;5.30;3.05;;;;;;;;;;5028967;28;20029;-74
2023/06/05 12:48:51;;;;;;;6.05;2.33;;;;;;;;;;5012628;28;20033;-73
2023/06/05 12:51:17;;;;;;;17.75;3.00;;;;;;;;;;5011809;28;20026;-77
2023/06/05 12:53:43;;;;;;;8.30;2.60;;;;;;;;;;5012322;28;20072;-73
2023/06/05 12:56:11;;;;;;;8.15;3.10;;;;;;;;;;5013036;28;20029;-72
2023/06/05 12:58:37;;;;;;;8.20;2.88;;;;;;;;;;5029663;28;20030;-75
2023/06/05 13:01:03;;;;;;;12.85;3.35;;;;;;;;;;5016369;28;20032;-72
2023/06/05 13:03:29;;;;;;;12.77;3.92;;;;;;;;;;5029627;28;20026;-72
2023/06/05 13:05:55;;;;;;;7.25;2.90;;;;;;;;;;5017158;28;20108;-73
2023/06/05 13:08:21;;;;;;;9.35;3.03;;;;;;;;;;5015617;28;20404;-73
2023/06/05 13:10:47;;;;;;;6.93;3.20;;;;;;;;;;5014257;28;20048;-72
2023/06/05 13:13:14;;;;;;;8.95;3.17;;;;;;;;;;5015714;28;20097;-73
2023/06/05 13:15:41;;;;;;;13.80;3.45;;;;;;;;;;5013962;28;20018;-72
2023/06/05 13:18:09;;;;;;;6.90;2.85;;;;;;;;;;5029826;28;20117;-75
2023/06/05 13:20:35;;;;;;;7.80;2.47;;;;;;;;;;5014024;28;20053;-73
2023/06/05 13:23:01;;;;;;;6.18;2.60;;;;;;;;;;5013033;28;20057;-74
2023/06/05 13:25:27;;;;;;;10.55;2.92;;;;;;;;;;5014629;28;20037;-73
2023/06/05 13:27:53;;;;;;;8.15;2.60;;;;;;;;;;5014370;28;20037;-72
2023/06/05 13:30:19;;;;;;;5.75;2.90;;;;;;;;;;5015535;28;20034;-72
2023/06/05 13:32:45;;;;;;;13.80;3.90;;;;;;;;;;5014403;28;20033;-75
2023/06/05 13:35:11;;;;;;;8.25;2.75;;;;;;;;;;5014846;28;20033;-74
2023/06/05 13:37:38;;;;;;;12.68;2.65;;;;;;;;;;5013499;28;20435;-73
2023/06/05 13:40:10;;;;;;;9.40;3.00;;;;;;;;;;5012026;28;20025;-74
2023/06/05 13:42:36;;;;;;;6.85;2.60;;;;;;;;;;5011516;28;20049;-73
2023/06/05 13:45:02;;;;;;;9.32;3.15;;;;;;;;;;5011410;28;20476;-74
2023/06/05 13:47:28;;;;;;;14.75;2.78;;;;;;;;;;5010931;28;20033;-73
2023/06/05 13:49:54;;;;;;;8.55;2.90;;;;;;;;;;5010862;28;20026;-73
2023/06/05 13:52:21;;;;;;;5.18;2.60;;;;;;;;;;5010895;28;20128;-75
2023/06/05 13:54:47;;;;;;;11.30;2.80;;;;;;;;;;5011485;28;20026;-76
2023/06/05 13:57:13;;;;;;;6.97;2.92;;;;;;;;;;5014091;28;20072;-74
2023/06/05 13:59:39;;;;;;;6.70;2.85;;;;;;;;;;5015150;28;20050;-74
2023/06/05 14:02:05;;;;;;;9.07;2.83;;;;;;;;;;5015095;28;20030;-73
2023/06/05 14:04:31;;;;;;;8.23;2.55;;;;;;;;;;5015561;28;20360;-74
2023/06/05 14:06:58;;;;;;;5.45;2.85;;;;;;;;;;5015722;28;20026;-72
2023/06/05 14:09:24;;;;;;;6.68;2.92;;;;;;;;;;5015271;28;20077;-73
2023/06/05 14:11:50;;;;;;;7.43;3.33;;;;;;;;;;5018861;28;20018;-73
2023/06/05 14:14:18;;;;;;;8.10;3.53;;;;;;;;;;5041625;28;20022;-75
2023/06/05 14:16:44;;;;;;;14.27;3.58;;;;;;;;;;5039541;28;20021;-73
2023/06/05 14:19:10;;;;;;;7.65;3.20;;;;;;;;;;5026295;28;20022;-73
2023/06/05 14:21:37;;;;;;;7.90;2.50;;;;;;;;;;5024466;28;20045;-77
2023/06/05 14:24:05;;;;;;;7.75;3.05;;;;;;;;;;5024951;28;20018;-74
2023/06/05 14:26:31;;;;;;;6.63;2.78;;;;;;;;;;5041419;28;20030;-74
2023/06/05 14:28:57;;;;;;;6.60;2.72;;;;;;;;;;5034562;28;20444;-80
2023/06/05 14:31:25;;;;;;;6.72;2.92;;;;;;;;;;5012311;28;20101;-71
2023/06/05 14:33:51;;;;;;;10.25;3.08;;;;;;;;;;5014264;28;20506;-72